Time;durP1;ratioP1;P1;durP2;ratioP2;P2;SDS_P1;SDS_P2;PMS_P1;PMS_P2;Temp;Humidity;BMP_temperature;BMP_pressure;BME280_temperature;BME280_humidity;BME280_pressure;Samples;Min_cycle;Max_cycle;Signal;HPM_P1;HPM_P2
2023/02/16 00:19:23;;;;;;;91.80;27.40;;;;;;;;;;6117283;23;20093;-58
2023/02/16 00:21:58;;;;;;;108.43;32.53;;;;;;;;;;6145440;23;20249;-58
2023/02/16 00:24:32;;;;;;;104.95;32.10;;;;;;;;;;6145408;23;20108;-56
2023/02/16 00:26:59;;;;;;;114.72;35.33;;;;;;;;;;6144871;23;20022;-69
2023/02/16 00:29:27;;;;;;;;;;;;;;;;;;6146753;23;20025;-69
2023/02/16 00:32:02;;;;;;;124.00;33.88;;;;;;;;;;6146531;23;20302;-69
2023/02/16 00:34:35;;;;;;;112.75;35.38;;;;;;;;;;6146507;23;20029;-69
2023/02/16 00:37:10;;;;;;;122.57;35.47;;;;;;;;;;6148199;23;20022;-60
2023/02/16 00:39:39;;;;;;;110.93;35.25;;;;;;;;;;6148179;23;20033;-49
2023/02/16 00:42:17;;;;;;;125.85;37.88;;;;;;;;;;6147972;23;20025;-47
2023/02/16 00:44:55;;;;;;;107.15;36.50;;;;;;;;;;6145731;23;20137;-50
2023/02/16 00:47:28;;;;;;;112.70;37.72;;;;;;;;;;6147794;23;20063;-48
2023/02/16 00:50:03;;;;;;;114.63;37.90;;;;;;;;;;6148166;23;20108;-48
2023/02/16 00:52:38;;;;;;;109.95;36.13;;;;;;;;;;6147239;23;20089;-48
2023/02/16 00:55:22;;;;;;;98.55;34.17;;;;;;;;;;6145976;23;20100;-57
2023/02/16 00:58:05;;;;;;;100.40;33.65;;;;;;;;;;6146357;23;20543;-59
2023/02/16 01:00:40;;;;;;;99.72;32.20;;;;;;;;;;6148118;23;20109;-59
2023/02/16 01:03:09;;;;;;;118.45;37.30;;;;;;;;;;6145581;23;20113;-59
2023/02/16 01:05:36;;;;;;;101.05;34.90;;;;;;;;;;6146574;23;20147;-62
2023/02/16 01:13:32;;;;;;;112.45;35.03;;;;;;;;;;6146950;23;20029;-73
2023/02/16 01:16:10;;;;;;;112.40;38.20;;;;;;;;;;6148016;23;20057;-73
2023/02/16 01:18:52;;;;;;;138.80;41.10;;;;;;;;;;6167830;23;20021;-73
2023/02/16 01:21:26;;;;;;;131.23;44.20;;;;;;;;;;6176239;23;20104;-74
2023/02/16 01:23:53;;;;;;;124.82;39.38;;;;;;;;;;6177396;23;20028;-59
2023/02/16 01:26:27;;;;;;;118.50;38.80;;;;;;;;;;6176738;23;20420;-58
2023/02/16 01:28:54;;;;;;;130.07;40.30;;;;;;;;;;6176630;23;20083;-58
2023/02/16 01:31:21;;;;;;;121.93;37.30;;;;;;;;;;6175529;23;20025;-58
2023/02/16 01:33:55;;;;;;;130.88;42.58;;;;;;;;;;6176272;23;20029;-58
2023/02/16 01:36:26;;;;;;;135.05;40.67;;;;;;;;;;6176454;23;20104;-59
2023/02/16 01:38:53;;;;;;;127.00;42.38;;;;;;;;;;6177477;23;20383;-60
2023/02/16 01:41:45;;;;;;;131.88;44.08;;;;;;;;;;6176654;23;20021;-59
2023/02/16 01:44:15;;;;;;;136.82;42.20;;;;;;;;;;6176963;23;20112;-59
2023/02/16 01:46:51;;;;;;;133.63;43.55;;;;;;;;;;6175178;23;20400;-60
2023/02/16 01:49:19;;;;;;;126.50;42.67;;;;;;;;;;6177576;23;20027;-59
2023/02/16 01:52:04;;;;;;;148.30;45.40;;;;;;;;;;6176226;23;20108;-59
2023/02/16 01:54:34;;;;;;;132.75;43.40;;;;;;;;;;6175295;23;20125;-59
2023/02/16 01:57:08;;;;;;;159.30;48.85;;;;;;;;;;6176110;23;20452;-59
2023/02/16 02:00:03;;;;;;;148.60;47.75;;;;;;;;;;6150627;23;20024;-59
2023/02/16 02:05:43;;;;;;;161.98;49.55;;;;;;;;;;6176574;23;20055;-62
2023/02/16 02:08:26;;;;;;;163.07;50.00;;;;;;;;;;6176587;23;20028;-62
2023/02/16 02:11:06;;;;;;;164.23;50.92;;;;;;;;;;6175815;23;20427;-62
2023/02/16 02:13:40;;;;;;;177.82;53.58;;;;;;;;;;6176135;23;20267;-63
2023/02/16 02:16:07;;;;;;;176.55;54.05;;;;;;;;;;6176008;23;20032;-63
2023/02/16 02:18:55;;;;;;;177.43;53.35;;;;;;;;;;6175033;23;20032;-63
2023/02/16 02:24:53;;;;;;;204.40;59.22;;;;;;;;;;6099444;23;20104;-59
2023/02/16 02:27:52;;;;;;;194.55;59.58;;;;;;;;;;6176087;23;20064;-59
2023/02/16 02:30:26;;;;;;;201.05;61.25;;;;;;;;;;6146252;23;20092;-73
2023/02/16 02:33:02;;;;;;;202.95;62.95;;;;;;;;;;6175526;23;20436;-58
2023/02/16 02:35:54;;;;;;;222.63;62.53;;;;;;;;;;6176246;23;20092;-59
2023/02/16 02:38:24;;;;;;;204.82;59.70;;;;;;;;;;6175029;23;20059;-58
2023/02/16 02:41:02;;;;;;;205.77;62.58;;;;;;;;;;6175899;23;20017;-59
2023/02/16 02:43:49;;;;;;;221.98;60.72;;;;;;;;;;6176157;23;20027;-58
2023/02/16 02:46:25;;;;;;;210.80;63.35;;;;;;;;;;6176063;23;20048;-58
2023/02/16 02:48:53;;;;;;;222.52;65.93;;;;;;;;;;6176020;23;20496;-58
2023/02/16 02:51:29;;;;;;;235.50;65.00;;;;;;;;;;6176167;23;20104;-58
2023/02/16 03:02:56;;;;;;;232.65;69.25;;;;;;;;;;6176046;23;20029;-59
2023/02/16 03:05:25;;;;;;;234.05;69.35;;;;;;;;;;6175588;23;20023;-59
2023/02/16 03:07:56;;;;;;;249.75;66.93;;;;;;;;;;6175669;23;20553;-59
2023/02/16 03:13:26;;;;;;;251.63;71.93;;;;;;;;;;6175991;23;20356;-59
2023/02/16 03:15:56;;;;;;;250.60;71.13;;;;;;;;;;6176619;23;20024;-59
2023/02/16 03:29:52;;;;;;;271.67;76.75;;;;;;;;;;6175724;23;20443;-59
2023/02/16 03:32:19;;;;;;;263.05;77.05;;;;;;;;;;6175543;23;20087;-59
2023/02/16 03:34:46;;;;;;;284.98;84.32;;;;;;;;;;6174955;23;20193;-59
2023/02/16 03:37:20;;;;;;;265.50;75.85;;;;;;;;;;6174972;23;20067;-60
2023/02/16 03:42:51;;;;;;;281.00;77.57;;;;;;;;;;6145898;23;20035;-57
2023/02/16 03:45:25;;;;;;;270.15;77.68;;;;;;;;;;6174867;23;20508;-48
2023/02/16 03:47:59;;;;;;;274.25;80.78;;;;;;;;;;6174986;23;20025;-49
2023/02/16 03:50:33;;;;;;;282.38;78.18;;;;;;;;;;6175721;23;20506;-49
2023/02/16 03:53:06;;;;;;;265.63;80.35;;;;;;;;;;6174616;23;20028;-48
2023/02/16 03:55:41;;;;;;;285.42;82.18;;;;;;;;;;6174550;23;20438;-69
2023/02/16 03:58:10;;;;;;;275.35;79.85;;;;;;;;;;6175893;23;20029;-50
2023/02/16 04:00:44;;;;;;;271.92;79.80;;;;;;;;;;6175385;23;20137;-48
2023/02/16 04:03:12;;;;;;;282.70;81.22;;;;;;;;;;6174514;23;20056;-49
2023/02/16 04:05:39;;;;;;;;;;;;;;;;;;6176978;23;20025;-48
2023/02/16 04:08:13;;;;;;;276.33;79.40;;;;;;;;;;6176329;23;19924;-51
2023/02/16 04:10:40;;;;;;;276.08;84.00;;;;;;;;;;6177643;23;20027;-49
2023/02/16 04:13:14;;;;;;;289.85;77.50;;;;;;;;;;6177507;23;20021;-73
2023/02/16 04:15:41;;;;;;;286.77;83.63;;;;;;;;;;6177832;23;20029;-73
2023/02/16 04:18:09;;;;;;;288.42;80.57;;;;;;;;;;6174609;23;20048;-73
2023/02/16 04:20:42;;;;;;;287.50;83.28;;;;;;;;;;6178072;23;20100;-74
2023/02/16 04:23:09;;;;;;;262.40;82.88;;;;;;;;;;6176066;23;20522;-73
2023/02/16 04:25:43;;;;;;;284.02;76.60;;;;;;;;;;6177896;23;20053;-59
2023/02/16 04:28:10;;;;;;;304.92;85.75;;;;;;;;;;6178091;23;20103;-60
2023/02/16 04:30:44;;;;;;;278.10;83.32;;;;;;;;;;6176635;23;20024;-59
2023/02/16 04:33:11;;;;;;;294.00;86.18;;;;;;;;;;6177595;23;20027;-59
2023/02/16 04:35:38;;;;;;;320.23;92.80;;;;;;;;;;6177931;23;20048;-59
2023/02/16 04:38:12;;;;;;;315.98;84.55;;;;;;;;;;6176735;23;20031;-59
2023/02/16 04:40:39;;;;;;;304.02;83.65;;;;;;;;;;6177241;23;20025;-60
2023/02/16 04:43:13;;;;;;;311.92;89.13;;;;;;;;;;6178480;23;20039;-73
2023/02/16 04:45:40;;;;;;;332.67;92.00;;;;;;;;;;6176397;23;20024;-73
2023/02/16 04:48:07;;;;;;;302.95;84.47;;;;;;;;;;6176999;23;20083;-73
2023/02/16 04:50:41;;;;;;;325.58;92.75;;;;;;;;;;6177461;23;20388;-73
2023/02/16 04:53:08;;;;;;;344.67;94.65;;;;;;;;;;6175927;23;20411;-60
2023/02/16 04:55:48;;;;;;;355.63;95.95;;;;;;;;;;6176608;23;20391;-60
2023/02/16 04:58:16;;;;;;;343.73;95.75;;;;;;;;;;6177330;23;20056;-60
2023/02/16 05:01:03;;;;;;;350.02;91.30;;;;;;;;;;6176328;23;20036;-60
2023/02/16 05:03:37;;;;;;;348.83;94.20;;;;;;;;;;6173697;23;20044;-60
2023/02/16 05:06:04;;;;;;;356.38;95.78;;;;;;;;;;6177778;23;20021;-59
2023/02/16 05:08:31;;;;;;;351.27;90.65;;;;;;;;;;6176040;23;20039;-60
2023/02/16 05:16:44;;;;;;;358.42;94.53;;;;;;;;;;6175400;23;20035;-60
2023/02/16 05:19:24;;;;;;;375.30;98.53;;;;;;;;;;6173077;23;20021;-60
2023/02/16 05:21:58;;;;;;;395.80;99.22;;;;;;;;;;6176033;23;20021;-51
2023/02/16 05:24:25;;;;;;;384.48;97.05;;;;;;;;;;6175938;23;20451;-62
2023/02/16 05:26:54;;;;;;;389.63;94.15;;;;;;;;;;6175362;23;20487;-62
2023/02/16 05:29:28;;;;;;;404.50;97.78;;;;;;;;;;6176089;23;20028;-62
2023/02/16 05:31:55;;;;;;;385.52;93.47;;;;;;;;;;6176071;23;20023;-62
2023/02/16 05:34:31;;;;;;;422.85;103.25;;;;;;;;;;6175920;23;20021;-63
2023/02/16 05:36:58;;;;;;;407.38;102.43;;;;;;;;;;6176601;23;20064;-63
2023/02/16 05:39:25;;;;;;;425.75;102.25;;;;;;;;;;6174495;23;20029;-59
2023/02/16 05:41:59;;;;;;;445.60;101.28;;;;;;;;;;6174897;23;20068;-58
2023/02/16 05:44:26;;;;;;;465.65;107.03;;;;;;;;;;6171511;23;20435;-58
2023/02/16 05:47:00;;;;;;;481.23;105.88;;;;;;;;;;6172133;23;20032;-58
2023/02/16 05:49:27;;;;;;;543.25;110.93;;;;;;;;;;6174690;23;20024;-60
2023/02/16 05:51:55;;;;;;;438.15;101.50;;;;;;;;;;6174175;23;20048;-60
2023/02/16 05:54:29;;;;;;;472.77;104.03;;;;;;;;;;6174202;23;20021;-60
2023/02/16 05:56:56;;;;;;;505.63;103.53;;;;;;;;;;6176725;23;20027;-60
2023/02/16 05:59:30;;;;;;;487.45;102.82;;;;;;;;;;6175445;23;20114;-59
2023/02/16 06:01:57;;;;;;;477.80;99.43;;;;;;;;;;6173701;23;20483;-60
2023/02/16 06:04:24;;;;;;;539.90;106.03;;;;;;;;;;6175244;23;20067;-60
2023/02/16 06:06:58;;;;;;;550.05;103.68;;;;;;;;;;6174743;23;20577;-69
2023/02/16 06:09:25;;;;;;;631.53;117.03;;;;;;;;;;6173209;23;20021;-68
2023/02/16 06:11:52;;;;;;;537.45;108.82;;;;;;;;;;6176406;23;20024;-69
2023/02/16 06:14:26;;;;;;;438.73;93.68;;;;;;;;;;6175363;23;20017;-68
2023/02/16 06:16:55;;;;;;;531.05;100.40;;;;;;;;;;6174869;23;20546;-68
2023/02/16 06:19:42;;;;;;;527.35;101.10;;;;;;;;;;6174228;23;20021;-60
2023/02/16 06:22:16;;;;;;;508.67;102.45;;;;;;;;;;6173217;23;20031;-60
2023/02/16 06:24:50;;;;;;;531.53;106.13;;;;;;;;;;6174206;23;20096;-60
2023/02/16 06:27:24;;;;;;;512.50;97.70;;;;;;;;;;6175291;23;20108;-59
2023/02/16 06:29:58;;;;;;;528.22;105.45;;;;;;;;;;6175782;23;20056;-59
2023/02/16 06:32:25;;;;;;;600.55;108.65;;;;;;;;;;6174203;23;20080;-60
2023/02/16 06:34:59;;;;;;;526.33;101.85;;;;;;;;;;6175984;23;20029;-60
2023/02/16 06:37:26;;;;;;;541.90;104.85;;;;;;;;;;6176009;23;20108;-63
2023/02/16 06:39:54;;;;;;;609.65;112.35;;;;;;;;;;6174319;23;20391;-62
2023/02/16 06:42:28;;;;;;;522.92;108.80;;;;;;;;;;6174209;23;20025;-62
2023/02/16 06:44:55;;;;;;;523.83;103.82;;;;;;;;;;6173937;23;20124;-63
2023/02/16 06:47:29;;;;;;;519.40;103.50;;;;;;;;;;6174584;23;20096;-50
2023/02/16 06:49:56;;;;;;;492.50;99.53;;;;;;;;;;6175984;23;20498;-59
2023/02/16 06:52:30;;;;;;;436.33;92.03;;;;;;;;;;6175804;23;20043;-58
2023/02/16 06:54:57;;;;;;;572.50;107.00;;;;;;;;;;6176193;23;20021;-59
2023/02/16 06:57:24;;;;;;;520.25;103.53;;;;;;;;;;6174828;23;20455;-57
2023/02/16 06:59:58;;;;;;;545.03;102.68;;;;;;;;;;6176122;23;20043;-57
2023/02/16 07:02:25;;;;;;;577.60;106.47;;;;;;;;;;6164481;23;20052;-54
2023/02/16 07:04:53;;;;;;;568.45;104.28;;;;;;;;;;6174336;23;20103;-62
2023/02/16 07:07:27;;;;;;;545.97;105.95;;;;;;;;;;6175831;23;20017;-62
2023/02/16 07:09:54;;;;;;;556.17;100.95;;;;;;;;;;6148324;23;20047;-62
2023/02/16 07:12:28;;;;;;;509.98;97.68;;;;;;;;;;6175781;23;20055;-62
2023/02/16 07:14:55;;;;;;;540.90;101.18;;;;;;;;;;6176144;23;20017;-60
2023/02/16 07:17:22;;;;;;;573.55;102.78;;;;;;;;;;6174273;23;20075;-58
2023/02/16 07:20:04;;;;;;;512.83;97.10;;;;;;;;;;6173159;23;20434;-59
2023/02/16 07:22:31;;;;;;;564.78;101.90;;;;;;;;;;6172848;23;20140;-56
2023/02/16 07:25:05;;;;;;;450.40;81.15;;;;;;;;;;6175356;23;20484;-55
2023/02/16 07:27:32;;;;;;;484.52;96.70;;;;;;;;;;6174653;23;20104;-58
2023/02/16 07:29:59;;;;;;;572.90;100.07;;;;;;;;;;6175318;23;20056;-58
2023/02/16 07:32:33;;;;;;;682.92;111.45;;;;;;;;;;6174048;23;20033;-80
2023/02/16 07:35:00;;;;;;;626.38;107.15;;;;;;;;;;6174300;23;20494;-81
2023/02/16 07:37:27;;;;;;;523.58;88.50;;;;;;;;;;6175569;23;20028;-83
2023/02/16 07:40:02;;;;;;;597.80;102.10;;;;;;;;;;6174843;23;20028;-80
2023/02/16 07:42:30;;;;;;;658.83;106.65;;;;;;;;;;6175023;23;20091;-77
2023/02/16 07:45:04;;;;;;;628.40;107.47;;;;;;;;;;6174648;23;20067;-58
2023/02/16 07:47:31;;;;;;;639.05;109.07;;;;;;;;;;6173932;23;20023;-81
2023/02/16 07:49:58;;;;;;;704.90;111.18;;;;;;;;;;6175380;23;20391;-81
2023/02/16 07:52:32;;;;;;;676.15;107.20;;;;;;;;;;6176208;23;20575;-81
2023/02/16 07:54:59;;;;;;;634.95;106.80;;;;;;;;;;6175316;23;20096;-81
2023/02/16 07:57:33;;;;;;;670.63;105.75;;;;;;;;;;6174604;23;20021;-81
2023/02/16 08:00:00;;;;;;;522.55;91.60;;;;;;;;;;6174027;23;20055;-80
2023/02/16 08:02:28;;;;;;;665.13;108.82;;;;;;;;;;6174150;23;20057;-60
2023/02/16 08:05:02;;;;;;;797.22;115.78;;;;;;;;;;6173599;23;20096;-61
2023/02/16 08:07:29;;;;;;;705.35;109.32;;;;;;;;;;6175741;23;20096;-61
2023/02/16 08:10:04;;;;;;;725.30;109.32;;;;;;;;;;6174063;23;20136;-61
2023/02/16 08:12:32;;;;;;;737.65;115.32;;;;;;;;;;6173698;23;20021;-52
2023/02/16 08:14:59;;;;;;;736.92;115.43;;;;;;;;;;6174209;23;20060;-58
2023/02/16 08:17:33;;;;;;;759.70;117.57;;;;;;;;;;6174500;23;20017;-57
2023/02/16 08:20:07;;;;;;;963.65;123.25;;;;;;;;;;6171293;23;20071;-58
2023/02/16 08:22:42;;;;;;;852.97;119.00;;;;;;;;;;6173359;23;20513;-58
2023/02/16 08:25:10;;;;;;;895.47;126.25;;;;;;;;;;6174810;23;20094;-58
2023/02/16 08:27:44;;;;;;;964.67;126.63;;;;;;;;;;6173996;23;20025;-58
2023/02/16 08:30:12;;;;;;;919.00;116.78;;;;;;;;;;6174682;23;20031;-54
2023/02/16 08:32:40;;;;;;;853.00;113.30;;;;;;;;;;6173798;23;20063;-55
2023/02/16 08:35:14;;;;;;;1158.35;131.68;;;;;;;;;;6173239;23;20116;-56
2023/02/16 08:37:49;;;;;;;827.78;115.63;;;;;;;;;;6174968;23;20104;-55
2023/02/16 08:40:25;;;;;;;857.47;121.05;;;;;;;;;;6175216;23;20036;-59
2023/02/16 08:42:52;;;;;;;1031.65;124.47;;;;;;;;;;6173607;23;20028;-57
2023/02/16 08:45:26;;;;;;;891.33;121.68;;;;;;;;;;6174355;23;20021;-58
2023/02/16 08:47:53;;;;;;;947.13;128.57;;;;;;;;;;6173701;23;20485;-57
2023/02/16 08:50:21;;;;;;;949.42;122.75;;;;;;;;;;6173670;23;20540;-58
2023/02/16 08:52:57;;;;;;;830.33;117.32;;;;;;;;;;6174976;23;20428;-58
2023/02/16 08:55:24;;;;;;;904.65;125.18;;;;;;;;;;6174972;23;20029;-58
2023/02/16 08:57:59;;;;;;;952.42;126.05;;;;;;;;;;6176170;23;20028;-58
2023/02/16 09:00:37;;;;;;;949.33;125.88;;;;;;;;;;6176852;23;20387;-58
2023/02/16 09:03:12;;;;;;;1100.32;132.02;;;;;;;;;;6174571;23;20021;-58
2023/02/16 09:05:39;;;;;;;993.38;125.82;;;;;;;;;;6175237;23;20025;-59
2023/02/16 09:08:14;;;;;;;947.95;122.43;;;;;;;;;;6174597;23;20482;-55
2023/02/16 09:10:41;;;;;;;670.28;106.72;;;;;;;;;;6175469;23;20031;-59
2023/02/16 09:13:12;;;;;;;650.60;106.18;;;;;;;;;;6174801;23;20035;-51
2023/02/16 09:15:46;;;;;;;778.70;109.47;;;;;;;;;;6175880;23;20027;-48
2023/02/16 09:18:14;;;;;;;689.25;110.13;;;;;;;;;;6174261;23;20319;-49
2023/02/16 09:21:01;;;;;;;748.70;110.88;;;;;;;;;;6174660;23;20047;-52
2023/02/16 09:23:28;;;;;;;769.10;118.72;;;;;;;;;;6175255;23;20060;-50
2023/02/16 09:26:05;;;;;;;779.50;115.32;;;;;;;;;;6176045;23;20104;-70
2023/02/16 09:28:37;;;;;;;719.55;103.45;;;;;;;;;;6174889;23;20060;-70
2023/02/16 09:31:12;;;;;;;774.53;112.90;;;;;;;;;;6175406;23;20021;-71
2023/02/16 09:33:46;;;;;;;877.33;114.65;;;;;;;;;;6173567;23;20025;-71
2023/02/16 09:36:14;;;;;;;965.38;123.85;;;;;;;;;;6176950;23;20029;-70
2023/02/16 09:38:42;;;;;;;880.60;117.35;;;;;;;;;;6173931;23;20109;-62
2023/02/16 09:41:24;;;;;;;908.50;120.72;;;;;;;;;;6176648;23;20025;-80
2023/02/16 09:44:00;;;;;;;814.17;114.82;;;;;;;;;;6176202;23;20496;-79
2023/02/16 09:46:29;;;;;;;886.42;118.47;;;;;;;;;;6175100;23;20068;-81
2023/02/16 09:48:57;;;;;;;880.30;118.82;;;;;;;;;;6173344;23;20025;-82
2023/02/16 09:51:34;;;;;;;746.17;108.25;;;;;;;;;;6175524;23;20025;-80
2023/02/16 09:54:08;;;;;;;738.88;110.10;;;;;;;;;;6175025;23;20464;-80
2023/02/16 09:56:54;;;;;;;764.75;108.82;;;;;;;;;;6175536;23;20063;-70
2023/02/16 09:59:21;;;;;;;900.05;118.05;;;;;;;;;;6174079;23;20435;-69
2023/02/16 10:02:07;;;;;;;729.95;108.07;;;;;;;;;;6176048;23;20099;-69
2023/02/16 10:04:49;;;;;;;796.45;108.13;;;;;;;;;;6174035;23;20250;-69
2023/02/16 10:07:25;;;;;;;658.75;104.68;;;;;;;;;;6176175;23;20108;-60
2023/02/16 10:09:54;;;;;;;580.42;97.60;;;;;;;;;;6173380;23;20450;-60
2023/02/16 10:12:31;;;;;;;574.67;95.40;;;;;;;;;;6170976;23;20028;-60
2023/02/16 10:15:03;;;;;;;473.13;87.10;;;;;;;;;;6175300;23;20021;-59
2023/02/16 10:17:36;;;;;;;430.92;86.40;;;;;;;;;;6174798;23;20021;-60
2023/02/16 10:20:05;;;;;;;;;;;;;;;;;;6173511;23;20048;-60
2023/02/16 10:22:46;;;;;;;418.65;82.72;;;;;;;;;;6175055;23;19920;-60
2023/02/16 10:25:19;;;;;;;362.92;79.45;;;;;;;;;;6175720;23;20094;-70
2023/02/16 10:28:00;;;;;;;398.60;82.93;;;;;;;;;;6174635;23;20020;-70
2023/02/16 10:30:30;;;;;;;407.20;83.35;;;;;;;;;;6174136;23;20390;-70
2023/02/16 10:33:37;;;;;;;361.90;79.80;;;;;;;;;;6149325;23;20025;-70
2023/02/16 10:36:13;;;;;;;387.50;82.97;;;;;;;;;;6114360;23;20395;-65
2023/02/16 10:38:53;;;;;;;376.83;83.03;;;;;;;;;;6173938;23;20112;-61
2023/02/16 10:41:31;;;;;;;370.20;86.32;;;;;;;;;;6172342;23;20107;-62
2023/02/16 10:44:31;;;;;;;356.13;81.57;;;;;;;;;;6173536;23;20543;-61
2023/02/16 10:47:08;;;;;;;321.42;77.78;;;;;;;;;;6174349;23;20108;-61
2023/02/16 10:49:42;;;;;;;305.02;75.07;;;;;;;;;;6173434;23;20040;-59
2023/02/16 10:52:10;;;;;;;306.45;71.28;;;;;;;;;;6175805;23;20024;-62
2023/02/16 10:54:38;;;;;;;317.83;76.28;;;;;;;;;;6172520;23;20025;-61
2023/02/16 10:57:19;;;;;;;291.52;74.75;;;;;;;;;;6173976;23;20031;-62
2023/02/16 10:59:47;;;;;;;278.27;73.63;;;;;;;;;;6174889;23;20083;-62
2023/02/16 11:02:24;;;;;;;271.55;68.18;;;;;;;;;;6175886;23;20225;-70
2023/02/16 11:04:53;;;;;;;200.60;54.72;;;;;;;;;;6173959;23;20052;-63
2023/02/16 11:07:22;;;;;;;163.35;53.00;;;;;;;;;;6175433;23;20021;-64
2023/02/16 11:09:57;;;;;;;188.75;55.75;;;;;;;;;;6174609;23;20530;-64
2023/02/16 11:12:33;;;;;;;168.10;51.30;;;;;;;;;;6175607;23;20444;-63
2023/02/16 11:15:21;;;;;;;160.93;49.33;;;;;;;;;;6150478;23;20060;-63
2023/02/16 11:17:48;;;;;;;153.63;47.33;;;;;;;;;;6173641;23;20547;-64
2023/02/16 11:20:47;;;;;;;156.38;48.33;;;;;;;;;;6174689;23;20021;-61
2023/02/16 11:23:21;;;;;;;167.57;49.85;;;;;;;;;;6175431;23;20025;-61
2023/02/16 11:26:11;;;;;;;167.60;50.92;;;;;;;;;;6175049;23;20029;-61
2023/02/16 11:28:46;;;;;;;139.43;44.97;;;;;;;;;;6175125;23;20063;-61
2023/02/16 11:31:19;;;;;;;141.55;45.30;;;;;;;;;;6174835;23;20111;-61
2023/02/16 11:34:01;;;;;;;126.43;40.70;;;;;;;;;;6174366;23;20049;-60
2023/02/16 11:36:31;;;;;;;;;;;;;;;;;;6176264;23;20079;-60
2023/02/16 11:39:05;;;;;;;125.40;40.15;;;;;;;;;;6173531;23;19967;-60
2023/02/16 11:41:34;;;;;;;122.75;40.85;;;;;;;;;;6174157;23;20024;-60
2023/02/16 11:44:02;;;;;;;114.15;35.75;;;;;;;;;;6176008;23;20053;-60
2023/02/16 11:46:40;;;;;;;125.90;41.05;;;;;;;;;;6174586;23;20025;-60
2023/02/16 11:49:30;;;;;;;119.85;42.03;;;;;;;;;;6176164;23;20092;-70
2023/02/16 11:52:19;;;;;;;120.85;38.42;;;;;;;;;;6169935;23;20025;-71
2023/02/16 11:54:51;;;;;;;115.30;38.47;;;;;;;;;;6174866;23;20048;-70
2023/02/16 11:57:43;;;;;;;119.97;41.00;;;;;;;;;;6171562;23;20520;-70
2023/02/16 12:00:18;;;;;;;126.10;40.20;;;;;;;;;;6174793;23;20031;-60
2023/02/16 12:03:01;;;;;;;114.80;37.95;;;;;;;;;;6174362;23;20104;-64
2023/02/16 12:05:37;;;;;;;132.75;38.40;;;;;;;;;;6175881;23;20025;-64
2023/02/16 12:08:23;;;;;;;120.63;38.80;;;;;;;;;;6174266;23;20029;-64
2023/02/16 12:10:53;;;;;;;112.97;38.45;;;;;;;;;;6173499;23;20100;-64
2023/02/16 12:13:42;;;;;;;113.20;36.33;;;;;;;;;;6174208;23;20096;-64
2023/02/16 12:16:21;;;;;;;118.93;37.65;;;;;;;;;;6175530;23;20021;-64
2023/02/16 12:19:11;;;;;;;114.90;37.63;;;;;;;;;;6172396;23;20079;-64
2023/02/16 12:21:50;;;;;;;101.50;38.35;;;;;;;;;;6174368;23;20032;-63
2023/02/16 12:24:33;;;;;;;119.22;36.53;;;;;;;;;;6172627;23;20027;-64
2023/02/16 12:27:05;;;;;;;105.90;36.25;;;;;;;;;;6176762;23;20025;-64
2023/02/16 12:29:43;;;;;;;94.53;31.42;;;;;;;;;;6176251;23;20021;-64
2023/02/16 12:32:16;;;;;;;120.70;35.97;;;;;;;;;;6177057;23;20116;-60
2023/02/16 12:35:09;;;;;;;111.05;34.25;;;;;;;;;;6177168;23;20029;-60
2023/02/16 12:38:09;;;;;;;118.60;35.90;;;;;;;;;;6176599;23;20044;-60
2023/02/16 12:40:52;;;;;;;74.68;27.17;;;;;;;;;;6154407;23;20566;-60
2023/02/16 12:43:35;;;;;;;85.18;28.17;;;;;;;;;;6178041;23;20104;-60
2023/02/16 12:46:13;;;;;;;81.30;25.98;;;;;;;;;;6178033;23;20476;-71
2023/02/16 12:48:52;;;;;;;81.18;27.05;;;;;;;;;;6176694;23;20017;-71
2023/02/16 12:51:30;;;;;;;77.32;26.98;;;;;;;;;;6176700;23;20093;-70
2023/02/16 12:54:13;;;;;;;73.22;25.10;;;;;;;;;;6173482;23;20036;-71
2023/02/16 12:57:06;;;;;;;61.88;22.48;;;;;;;;;;6172947;23;20029;-83
2023/02/16 12:59:54;;;;;;;55.25;20.90;;;;;;;;;;6176442;23;20021;-51
2023/02/16 13:02:33;;;;;;;60.50;23.75;;;;;;;;;;6177508;23;20025;-48
2023/02/16 13:05:07;;;;;;;79.65;24.25;;;;;;;;;;6174879;23;20495;-49
2023/02/16 13:07:42;;;;;;;74.70;24.45;;;;;;;;;;6175373;23;20025;-52
2023/02/16 13:10:28;;;;;;;70.32;23.15;;;;;;;;;;6176119;23;20086;-51
2023/02/16 13:13:05;;;;;;;70.28;22.92;;;;;;;;;;6177027;23;20025;-53
2023/02/16 13:15:38;;;;;;;69.22;22.92;;;;;;;;;;6175523;23;20021;-61
2023/02/16 13:18:19;;;;;;;61.15;22.73;;;;;;;;;;6175716;23;20103;-61
2023/02/16 13:20:54;;;;;;;72.30;22.23;;;;;;;;;;6174498;23;20349;-61
2023/02/16 13:23:37;;;;;;;64.65;23.20;;;;;;;;;;6177111;23;20071;-60
2023/02/16 13:26:23;;;;;;;59.28;21.23;;;;;;;;;;6176690;23;20051;-62
2023/02/16 13:29:14;;;;;;;60.67;21.60;;;;;;;;;;6175135;23;20047;-64
2023/02/16 13:31:51;;;;;;;58.88;21.88;;;;;;;;;;6175660;23;20025;-64
2023/02/16 13:34:48;;;;;;;60.40;21.98;;;;;;;;;;6176377;23;20028;-63
2023/02/16 13:37:41;;;;;;;63.53;23.83;;;;;;;;;;6170242;23;20488;-64
2023/02/16 13:40:27;;;;;;;66.63;22.73;;;;;;;;;;6176542;23;20159;-64
2023/02/16 13:43:22;;;;;;;69.20;22.65;;;;;;;;;;6177390;23;20075;-64
2023/02/16 13:45:52;;;;;;;;;;;;;;;;;;6173291;23;20068;-64
2023/02/16 13:48:30;;;;;;;51.92;21.33;;;;;;;;;;6176114;23;19946;-64
2023/02/16 13:50:59;;;;;;;56.92;20.38;;;;;;;;;;6175065;23;20112;-64
2023/02/16 13:53:36;;;;;;;60.90;20.85;;;;;;;;;;6176302;23;20447;-69
2023/02/16 13:56:22;;;;;;;56.58;20.42;;;;;;;;;;6175681;23;20026;-51
2023/02/16 13:58:56;;;;;;;57.72;21.15;;;;;;;;;;6174084;23;20025;-51
2023/02/16 14:01:38;;;;;;;75.88;22.65;;;;;;;;;;6174689;23;20500;-55
2023/02/16 14:04:24;;;;;;;59.53;20.85;;;;;;;;;;6175762;23;20409;-55
2023/02/16 14:07:13;;;;;;;55.67;19.55;;;;;;;;;;6174723;23;20084;-52
2023/02/16 14:09:48;;;;;;;62.55;20.27;;;;;;;;;;6175251;23;20510;-52
2023/02/16 14:12:20;;;;;;;63.38;22.02;;;;;;;;;;6176116;23;20497;-64
2023/02/16 14:14:56;;;;;;;60.35;21.77;;;;;;;;;;6174458;23;20108;-64
2023/02/16 14:17:27;;;;;;;63.28;22.55;;;;;;;;;;6175970;23;20017;-64
2023/02/16 14:20:20;;;;;;;68.00;22.67;;;;;;;;;;6172960;23;20039;-64
2023/02/16 14:23:06;;;;;;;66.28;22.27;;;;;;;;;;6172737;23;20017;-61
2023/02/16 14:25:39;;;;;;;76.10;24.20;;;;;;;;;;6174864;23;20031;-70
2023/02/16 14:28:06;;;;;;;;;;;;;;;;;;6174688;23;20025;-69
2023/02/16 14:30:57;;;;;;;67.57;22.67;;;;;;;;;;6173541;23;19916;-70
2023/02/16 14:33:33;;;;;;;60.03;22.23;;;;;;;;;;6175884;23;20032;-70
2023/02/16 14:36:13;;;;;;;60.08;21.50;;;;;;;;;;6174233;23;20056;-69
2023/02/16 14:38:41;;;;;;;81.18;23.48;;;;;;;;;;6172865;23;20052;-70
2023/02/16 14:41:23;;;;;;;59.40;21.90;;;;;;;;;;6173373;23;20107;-61
2023/02/16 14:43:55;;;;;;;62.17;22.30;;;;;;;;;;6174438;23;20480;-60
2023/02/16 14:46:48;;;;;;;60.53;20.63;;;;;;;;;;6175500;23;20100;-61
2023/02/16 14:49:34;;;;;;;61.17;20.05;;;;;;;;;;6175011;23;20439;-61
2023/02/16 14:52:25;;;;;;;68.00;21.83;;;;;;;;;;6174076;23;20448;-61
2023/02/16 14:55:08;;;;;;;58.50;19.55;;;;;;;;;;6175745;23;20056;-69
2023/02/16 14:57:42;;;;;;;68.45;20.17;;;;;;;;;;6175141;23;20031;-70
2023/02/16 15:00:18;;;;;;;68.95;21.15;;;;;;;;;;6174899;23;20032;-69
2023/02/16 15:03:00;;;;;;;68.50;19.63;;;;;;;;;;6176056;23;20100;-69
2023/02/16 15:05:31;;;;;;;59.05;20.00;;;;;;;;;;6175861;23;20353;-69
2023/02/16 15:08:15;;;;;;;59.08;19.25;;;;;;;;;;6175449;23;20025;-69
2023/02/16 15:10:46;;;;;;;59.13;19.80;;;;;;;;;;6174719;23;20116;-70
2023/02/16 15:13:28;;;;;;;67.45;20.52;;;;;;;;;;6175814;23;20136;-70
2023/02/16 15:15:58;;;;;;;68.40;21.08;;;;;;;;;;6174600;23;20035;-70
2023/02/16 15:18:37;;;;;;;78.32;21.35;;;;;;;;;;6174357;23;20503;-69
2023/02/16 15:21:17;;;;;;;71.88;21.92;;;;;;;;;;6173578;23;20108;-52
2023/02/16 15:23:52;;;;;;;73.78;21.45;;;;;;;;;;6175815;23;20357;-50
2023/02/16 15:26:21;;;;;;;75.90;22.02;;;;;;;;;;6174890;23;20484;-53
2023/02/16 15:29:12;;;;;;;83.25;23.65;;;;;;;;;;6174623;23;20021;-52
2023/02/16 15:31:39;;;;;;;84.07;22.90;;;;;;;;;;6176527;23;20025;-52
2023/02/16 15:34:15;;;;;;;88.25;24.55;;;;;;;;;;6174936;23;20060;-50
2023/02/16 15:36:43;;;;;;;83.18;24.38;;;;;;;;;;6175552;23;20076;-61
2023/02/16 15:39:42;;;;;;;93.18;23.58;;;;;;;;;;6174863;23;20031;-62
2023/02/16 15:42:38;;;;;;;87.03;24.67;;;;;;;;;;6174818;23;20091;-61
2023/02/16 15:45:28;;;;;;;91.60;25.38;;;;;;;;;;6174978;23;20068;-62
2023/02/16 15:48:13;;;;;;;98.80;26.80;;;;;;;;;;6176135;23;20024;-61
2023/02/16 15:50:48;;;;;;;88.82;27.67;;;;;;;;;;6174699;23;20064;-78
2023/02/16 15:53:21;;;;;;;84.93;28.50;;;;;;;;;;6175384;23;20043;-77